Jacksonville Naval Air Station
KNIP : now visible

Airfield :











YOU CAN JOIN US ON...

 
LOGIN :

Register | Disclaimer

   EN    FR    IT 

 









Legend :    VFR   Marginal VFR   IFR   Intensive IFR   Very Intensive IFR
Visi :
Ceiling :
>= 8 km
>= 3000ft
5 to 8 km
1000 to 3000 ft
1500m to 5 km
500 to 1000 ft
800 to 1500m
200 to 500 ft
< 800m
< 200 ft
Symbols :   Thunderstorms  Fog  Heavy snow  Heavy precipitations  Wind > 20 kt






- Airport Elevation : 21 ft


KNIP - Jacksonville Naval Air Station

CURRENT METAR :
  • 162353Z 11016KT 10SM SCT032 BKN250 29/23 A3006 RMK AO2 SLP174 T02940228 10350 20294 51006

EXPIRED METARs :
  • 162253Z 11013KT 10SM SCT036 BKN250 32/22 A3005 RMK AO2 SLP172 T03170217
  • 162153Z 11015KT 10SM SCT038 BKN250 32/22 A3005 RMK AO2 SLP170 T03220217 $
  • 162053Z 11015G23KT 10SM SCT040 BKN250 33/21 A3004 RMK AO2 SLP168 T03280211 56011 $
  • 161953Z 09011KT 10SM SCT040 BKN250 34/22 A3005 RMK AO2 SLP170 T03390217 $

TAF TAF KNIP
Valid from the 16 at 23:00 until the 17 at 23:00 UTC


1623/1723 09013KT 9999 VCSH SCT040 BKN250 QNH2996INS
TEMPO 1706/1712 10005KT 6000 SHRA BR SCT010 BKN025
BECMG 1715/1717 08013G18KT 9999 VCSH FEW050 SCT300 QNH2998INS AUTOMATED SENSOR METWATCH 1623 TIL 1710 TX32/1718Z TN26/1709Z FN00268
KZJX FIR / North America



MET'MAP, your aeronautical weather chart ! - Copyright ORBIFLY December 2007 - Disclaimer

ORBIFLY MET'MAP TEAM :

Programming & Development : Alexandra Zaïnal
Original concept : Baudouin d'Aumeries
Technical & hardware support : Manuel Goepfert
Assistance : Marc-Olivier Méhu




SOURCES & CREDITS :

   NOAA       Earth
Advisory